createdAt,value
2023-03-26T00:02:04.794Z,78.88
2023-03-26T00:04:34.472Z,78.96
2023-03-26T00:07:03.352Z,79.07
2023-03-26T00:09:34.697Z,79.03
2023-03-26T00:12:02.584Z,78.94
2023-03-26T00:14:30.536Z,79.05
2023-03-26T00:16:58.616Z,79.26
2023-03-26T00:19:28.643Z,79.34
2023-03-26T00:21:57.805Z,79.37
2023-03-26T00:24:29.964Z,79.40
2023-03-26T00:26:58.045Z,79.80
2023-03-26T00:29:28.312Z,79.99
2023-03-26T00:31:56.386Z,80.22
2023-03-26T00:34:25.053Z,80.11
2023-03-26T00:36:55.030Z,80.29
2023-03-26T00:39:25.725Z,80.34
2023-03-26T00:41:54.866Z,80.40
2023-03-26T00:44:23.401Z,80.46
2023-03-26T00:46:51.279Z,80.48
2023-03-26T00:49:20.689Z,80.50
2023-03-26T00:51:48.587Z,80.35
2023-03-26T00:54:16.690Z,80.47
2023-03-26T00:56:45.469Z,80.55
2023-03-26T00:59:13.866Z,80.50
2023-03-26T01:01:41.991Z,80.58
2023-03-26T01:04:30.977Z,80.61
2023-03-26T01:07:03.013Z,80.66
2023-03-26T01:09:35.127Z,80.77
2023-03-26T01:12:07.029Z,80.64
2023-03-26T01:14:35.324Z,80.69
2023-03-26T01:17:06.943Z,80.76
2023-03-26T01:19:44.913Z,80.74
2023-03-26T01:22:23.926Z,80.67
2023-03-26T01:24:56.865Z,80.52
2023-03-26T01:28:06.389Z,80.42
2023-03-26T01:30:58.873Z,80.40
2023-03-26T01:33:38.965Z,80.23
2023-03-26T01:36:49.635Z,80.13
2023-03-26T01:39:38.998Z,80.29
2023-03-26T01:42:15.898Z,80.26
2023-03-26T01:44:52.198Z,80.35
2023-03-26T01:47:21.947Z,80.34
2023-03-26T01:49:50.547Z,80.40
2023-03-26T01:52:25.191Z,80.48
2023-03-26T01:54:57.782Z,80.63
2023-03-26T01:57:59.277Z,80.76
2023-03-26T02:00:33.696Z,80.80
2023-03-26T02:03:32.268Z,81.03
2023-03-26T02:06:07.145Z,81.15
2023-03-26T02:09:03.135Z,81.19
2023-03-26T02:11:36.380Z,81.13
2023-03-26T02:14:06.329Z,81.14
2023-03-26T02:16:36.047Z,81.22
2023-03-26T02:19:04.560Z,81.18
2023-03-26T02:21:34.341Z,81.12
2023-03-26T02:24:04.887Z,81.14
2023-03-26T02:26:49.534Z,81.11
2023-03-26T02:29:21.426Z,81.11
2023-03-26T02:31:49.702Z,81.18
2023-03-26T02:34:17.619Z,81.20
2023-03-26T02:36:45.625Z,81.19
2023-03-26T02:39:15.662Z,81.25
2023-03-26T02:41:45.830Z,81.22
2023-03-26T02:44:13.967Z,81.33
2023-03-26T02:46:42.108Z,81.42
2023-03-26T02:49:10.502Z,81.60
2023-03-26T02:51:38.900Z,81.76
2023-03-26T02:54:10.024Z,81.90
2023-03-26T02:56:38.019Z,81.95
2023-03-26T02:59:06.074Z,82.07
2023-03-26T03:01:35.345Z,82.05
2023-03-26T03:04:04.529Z,81.85
2023-03-26T03:06:34.996Z,81.75
2023-03-26T03:09:03.027Z,81.72
2023-03-26T03:11:31.797Z,81.54
2023-03-26T03:13:59.748Z,81.50
2023-03-26T03:16:28.687Z,81.36
2023-03-26T03:18:58.389Z,81.38
2023-03-26T03:21:29.309Z,81.34
2023-03-26T03:24:33.538Z,81.27
2023-03-26T03:27:00.328Z,81.32
2023-03-26T03:29:35.310Z,81.29
2023-03-26T03:32:01.873Z,81.44
2023-03-26T03:34:28.414Z,81.43
2023-03-26T03:36:54.959Z,81.25
2023-03-26T03:39:21.601Z,81.21
2023-03-26T03:41:48.786Z,81.18
2023-03-26T03:44:16.158Z,80.98
2023-03-26T03:46:42.746Z,80.75
2023-03-26T03:49:09.243Z,80.61
2023-03-26T03:51:35.896Z,80.52
2023-03-26T03:54:05.131Z,80.42
2023-03-26T03:56:32.941Z,80.37
2023-03-26T03:58:59.729Z,80.22
2023-03-26T04:01:26.381Z,80.00
2023-03-26T04:03:53.098Z,79.90
2023-03-26T04:06:19.774Z,79.83
2023-03-26T04:08:46.251Z,79.89
2023-03-26T04:11:13.877Z,79.78
2023-03-26T04:13:40.448Z,79.63
2023-03-26T04:16:07.501Z,79.47
2023-03-26T04:18:33.949Z,79.37
2023-03-26T04:21:02.378Z,79.43
2023-03-26T04:23:31.526Z,79.45
2023-03-26T04:26:03.495Z,79.24
2023-03-26T04:28:47.303Z,79.13
2023-03-26T04:37:58.392Z,79.25
2023-03-26T04:40:26.329Z,79.24
2023-03-26T04:42:54.771Z,79.21
2023-03-26T04:45:23.220Z,79.18
2023-03-26T04:47:51.131Z,79.25
2023-03-26T04:50:19.118Z,79.19
2023-03-26T04:52:48.211Z,79.21
2023-03-26T04:55:31.537Z,79.54
2023-03-26T04:58:00.308Z,79.76
2023-03-26T05:00:28.598Z,81.07
2023-03-26T05:02:58.009Z,82.45
2023-03-26T05:05:27.308Z,83.16
2023-03-26T05:07:58.345Z,83.54
2023-03-26T05:10:26.137Z,83.86
2023-03-26T05:12:54.231Z,84.27
2023-03-26T05:15:23.183Z,84.26
2023-03-26T05:17:51.644Z,84.08
2023-03-26T05:20:22.979Z,83.90
2023-03-26T05:22:51.519Z,83.48
2023-03-26T05:25:20.064Z,83.38
2023-03-26T05:27:48.144Z,82.99
2023-03-26T05:30:18.970Z,82.93
2023-03-26T05:32:49.445Z,82.88
2023-03-26T05:35:18.695Z,82.72
2023-03-26T05:37:48.076Z,82.53
2023-03-26T05:40:17.415Z,82.51
2023-03-26T05:42:47.719Z,82.70
2023-03-26T05:45:16.296Z,82.14
2023-03-26T05:47:44.300Z,81.58
2023-03-26T05:50:12.361Z,80.86
2023-03-26T05:52:40.446Z,80.81
2023-03-26T05:55:19.044Z,80.59
2023-03-26T05:57:46.972Z,80.19
2023-03-26T06:00:18.102Z,79.61
2023-03-26T06:02:47.184Z,79.33
2023-03-26T06:05:16.154Z,79.43
2023-03-26T06:07:44.845Z,78.82
2023-03-26T06:10:17.945Z,78.65
2023-03-26T06:12:46.454Z,78.24
2023-03-26T06:15:16.877Z,77.71
2023-03-26T06:17:47.201Z,77.38
2023-03-26T06:20:15.889Z,75.64
2023-03-26T06:22:43.838Z,73.45
2023-03-26T06:25:12.434Z,74.07
2023-03-26T06:27:40.370Z,74.05
2023-03-26T06:30:08.770Z,74.74
2023-03-26T06:32:36.701Z,75.21
2023-03-26T06:35:05.071Z,75.73
2023-03-26T06:37:35.077Z,76.66
2023-03-26T06:40:06.358Z,78.66
2023-03-26T06:43:07.580Z,80.30
2023-03-26T06:45:23.842Z,81.43
2023-03-26T06:47:51.774Z,81.85
2023-03-26T06:50:21.384Z,82.19
2023-03-26T06:52:53.072Z,82.24
2023-03-26T06:55:21.780Z,82.41
2023-03-26T06:57:51.708Z,82.79
2023-03-26T07:00:21.660Z,82.85
2023-03-26T07:02:49.666Z,82.98
2023-03-26T07:05:18.240Z,82.93
2023-03-26T07:07:48.505Z,82.68
2023-03-26T07:10:18.180Z,82.67
2023-03-26T07:12:46.469Z,81.91
2023-03-26T07:15:14.385Z,82.12
2023-03-26T07:17:42.401Z,81.94
2023-03-26T07:20:11.808Z,81.12
2023-03-26T07:22:40.148Z,79.04
2023-03-26T07:25:09.006Z,77.58
2023-03-26T07:27:57.636Z,77.19
2023-03-26T07:30:47.105Z,75.55
2023-03-26T07:33:54.118Z,74.29
2023-03-26T07:36:48.492Z,73.34
2023-03-26T07:39:38.210Z,72.54
2023-03-26T07:42:47.944Z,73.12
2023-03-26T07:45:25.275Z,73.73
2023-03-26T07:47:53.976Z,73.07
2023-03-26T07:50:24.544Z,73.12
2023-03-26T07:52:54.966Z,73.27
2023-03-26T07:55:23.299Z,73.29
2023-03-26T07:58:02.125Z,73.82
2023-03-26T08:00:37.820Z,74.29
2023-03-26T08:03:27.123Z,74.23
2023-03-26T08:06:04.329Z,73.95
2023-03-26T08:08:48.495Z,73.70
2023-03-26T08:11:34.964Z,74.25
2023-03-26T08:14:18.417Z,74.76
2023-03-26T08:16:53.317Z,74.48
2023-03-26T08:19:58.327Z,74.46
2023-03-26T08:22:41.196Z,73.58
2023-03-26T08:25:17.892Z,72.87
2023-03-26T08:28:11.273Z,73.59
2023-03-26T08:30:39.576Z,72.38
2023-03-26T08:33:18.560Z,71.74
2023-03-26T08:42:18.833Z,72.25
2023-03-26T08:45:02.971Z,72.73
2023-03-26T08:47:50.147Z,72.66
2023-03-26T08:50:24.516Z,72.73
2023-03-26T08:53:20.247Z,73.09
2023-03-26T08:56:13.040Z,73.23
2023-03-26T08:59:15.298Z,73.51
2023-03-26T09:01:58.844Z,73.01
2023-03-26T09:04:47.086Z,73.24
2023-03-26T09:07:48.385Z,73.60
2023-03-26T09:10:25.539Z,74.94
2023-03-26T09:13:02.894Z,76.79
2023-03-26T09:15:50.452Z,78.16
2023-03-26T09:18:39.859Z,79.37
2023-03-26T09:21:16.580Z,79.31
2023-03-26T09:24:12.045Z,79.21
2023-03-26T09:26:52.142Z,78.77
2023-03-26T09:29:38.851Z,79.48
2023-03-26T09:32:54.694Z,77.66
2023-03-26T09:35:33.686Z,73.48
2023-03-26T09:38:22.009Z,71.33
2023-03-26T09:41:16.931Z,68.50
2023-03-26T09:43:55.865Z,65.37
2023-03-26T09:46:42.625Z,65.65
2023-03-26T09:49:30.858Z,66.24
2023-03-26T09:52:36.307Z,65.14
2023-03-26T09:55:07.499Z,66.06
2023-03-26T09:57:43.646Z,67.06
2023-03-26T10:00:35.668Z,67.27
2023-03-26T10:03:21.250Z,67.06
2023-03-26T10:05:52.409Z,68.18
2023-03-26T10:08:28.843Z,68.46
2023-03-26T10:11:36.068Z,69.81
2023-03-26T10:16:04.333Z,69.05
2023-03-26T10:19:11.137Z,67.61
2023-03-26T10:21:54.013Z,64.11
2023-03-26T10:25:03.966Z,62.11
2023-03-26T10:27:44.524Z,59.31
2023-03-26T10:30:44.901Z,56.72
2023-03-26T10:33:31.946Z,58.88
2023-03-26T10:36:45.520Z,60.48
2023-03-26T10:40:00.808Z,63.74
2023-03-26T10:42:47.715Z,66.25
2023-03-26T10:45:40.762Z,69.30
2023-03-26T10:48:35.893Z,69.40
2023-03-26T10:51:12.145Z,67.26
2023-03-26T10:54:12.508Z,62.69
2023-03-26T10:56:44.268Z,61.59
2023-03-26T10:59:14.990Z,66.58
2023-03-26T11:02:01.505Z,72.21
2023-03-26T11:04:57.508Z,77.24
2023-03-26T11:07:54.745Z,76.52
2023-03-26T11:10:45.812Z,78.49
2023-03-26T11:13:45.849Z,80.19
2023-03-26T11:16:25.540Z,79.89
2023-03-26T11:19:08.162Z,79.38
2023-03-26T11:21:54.638Z,77.82
2023-03-26T11:24:34.599Z,74.38
2023-03-26T11:27:15.508Z,73.40
2023-03-26T11:30:41.397Z,74.89
2023-03-26T11:33:32.564Z,73.21
2023-03-26T11:36:15.242Z,73.17
2023-03-26T11:38:47.605Z,73.71
2023-03-26T11:41:23.434Z,74.20
2023-03-26T11:43:56.661Z,74.32
2023-03-26T11:46:26.647Z,74.19
2023-03-26T11:49:04.262Z,75.17
2023-03-26T11:51:37.088Z,73.10
2023-03-26T11:54:08.193Z,71.15
2023-03-26T11:57:05.668Z,71.60
2023-03-26T11:59:56.663Z,70.90
2023-03-26T12:02:37.123Z,69.15
2023-03-26T12:05:15.611Z,69.11
2023-03-26T12:07:53.626Z,67.44
2023-03-26T12:10:38.139Z,68.56
2023-03-26T12:13:35.992Z,67.32
2023-03-26T12:16:19.319Z,66.59
2023-03-26T12:19:01.504Z,67.16
2023-03-26T12:21:29.527Z,67.12
2023-03-26T12:23:59.234Z,67.36
2023-03-26T12:26:51.841Z,68.91
2023-03-26T12:29:20.745Z,69.60
2023-03-26T12:31:56.370Z,69.87
2023-03-26T12:34:34.834Z,69.90
2023-03-26T12:37:04.872Z,68.35
2023-03-26T12:40:10.817Z,64.41
2023-03-26T12:44:43.591Z,57.45
2023-03-26T12:45:23.822Z,58.45
2023-03-26T12:48:00.710Z,53.77
2023-03-26T12:50:57.794Z,50.85
2023-03-26T12:53:41.304Z,49.19
2023-03-26T12:56:19.886Z,51.94
2023-03-26T12:59:01.572Z,53.02
2023-03-26T13:01:45.328Z,51.01
2023-03-26T13:04:28.823Z,52.03
2023-03-26T13:07:06.466Z,52.05
2023-03-26T13:10:01.090Z,53.68
2023-03-26T13:13:03.559Z,55.80
2023-03-26T13:15:39.650Z,57.08
2023-03-26T13:18:23.424Z,58.46
2023-03-26T13:21:18.500Z,59.38
2023-03-26T13:23:55.044Z,59.16
2023-03-26T13:26:38.065Z,57.91
2023-03-26T13:29:11.581Z,56.86
2023-03-26T13:31:47.598Z,56.59
2023-03-26T13:34:24.462Z,54.95
2023-03-26T13:37:22.649Z,53.85
2023-03-26T13:40:26.426Z,52.91
2023-03-26T13:43:09.297Z,50.65
2023-03-26T13:46:15.012Z,49.30
2023-03-26T13:48:52.978Z,47.76
2023-03-26T13:51:31.886Z,47.45
2023-03-26T13:54:14.063Z,48.10
2023-03-26T13:56:54.931Z,49.40
2023-03-26T13:59:32.638Z,52.70
2023-03-26T14:02:11.108Z,54.87
2023-03-26T14:04:49.873Z,56.33
2023-03-26T14:07:45.373Z,54.93
2023-03-26T14:10:27.393Z,51.46
2023-03-26T14:13:04.460Z,51.96
2023-03-26T14:15:46.947Z,53.99
2023-03-26T14:18:20.899Z,55.16
2023-03-26T14:21:19.723Z,53.26
2023-03-26T14:23:47.529Z,49.66
2023-03-26T14:26:41.007Z,50.06
2023-03-26T14:29:31.736Z,53.35
2023-03-26T14:32:24.488Z,55.22
2023-03-26T14:35:14.596Z,55.08
2023-03-26T14:38:00.636Z,53.46
2023-03-26T14:40:51.751Z,51.54
2023-03-26T14:43:34.554Z,48.77
2023-03-26T14:46:31.079Z,48.72
2023-03-26T14:49:36.332Z,48.70
2023-03-26T14:52:07.896Z,47.02
2023-03-26T14:59:18.750Z,40.90
2023-03-26T15:02:05.878Z,37.26
2023-03-26T15:04:52.517Z,35.57
2023-03-26T15:07:54.534Z,33.31
2023-03-26T15:10:44.350Z,35.07
2023-03-26T15:13:30.962Z,36.21
2023-03-26T15:16:30.637Z,37.95
2023-03-26T15:19:23.268Z,38.56
2023-03-26T15:21:59.974Z,39.82
2023-03-26T15:24:58.577Z,40.79
2023-03-26T15:27:37.787Z,43.20
2023-03-26T15:30:17.873Z,44.98
2023-03-26T15:32:49.766Z,45.96
2023-03-26T15:35:57.506Z,44.91
2023-03-26T15:38:51.940Z,42.72
2023-03-26T15:41:52.690Z,42.60
2023-03-26T15:44:43.787Z,43.35
2023-03-26T15:47:40.599Z,42.06
2023-03-26T15:50:38.232Z,40.59
2023-03-26T15:53:35.018Z,40.31
2023-03-26T15:56:31.939Z,42.52
2023-03-26T15:59:15.638Z,43.89
2023-03-26T16:02:34.850Z,44.71
2023-03-26T16:05:24.278Z,44.76
2023-03-26T16:08:15.787Z,46.03
2023-03-26T16:10:57.891Z,48.27
2023-03-26T16:16:24.760Z,49.73
2023-03-26T16:19:28.452Z,51.32
2023-03-26T16:22:08.403Z,53.67
2023-03-26T16:24:40.386Z,55.90
2023-03-26T16:27:20.064Z,57.30
2023-03-26T16:30:25.072Z,58.35
2023-03-26T16:32:55.731Z,58.88
2023-03-26T16:35:54.670Z,59.13
2023-03-26T16:38:24.407Z,59.45
2023-03-26T16:41:16.487Z,59.95
2023-03-26T16:44:11.105Z,60.72
2023-03-26T16:47:08.821Z,61.09
2023-03-26T16:52:31.504Z,61.58
2023-03-26T16:56:02.971Z,62.20
2023-03-26T16:58:40.248Z,62.54
2023-03-26T17:01:29.865Z,62.79
2023-03-26T17:04:10.342Z,63.43
2023-03-26T17:07:01.110Z,63.90
2023-03-26T17:10:01.975Z,64.28
2023-03-26T17:12:42.123Z,64.31
2023-03-26T17:15:30.109Z,64.08
2023-03-26T17:18:08.939Z,64.19
2023-03-26T17:20:59.009Z,64.43
2023-03-26T17:23:43.752Z,64.88
2023-03-26T17:26:23.920Z,64.99
2023-03-26T17:29:05.664Z,65.22
2023-03-26T17:31:38.666Z,65.36
2023-03-26T17:34:48.458Z,65.59
2023-03-26T17:37:21.247Z,65.62
2023-03-26T17:39:50.971Z,65.64
2023-03-26T17:42:32.142Z,65.70
2023-03-26T17:45:01.311Z,65.81
2023-03-26T17:47:56.202Z,65.78
2023-03-26T17:50:43.917Z,66.06
2023-03-26T17:53:22.911Z,66.12
2023-03-26T17:55:51.384Z,66.09
2023-03-26T17:58:37.233Z,66.32
2023-03-26T18:01:17.358Z,66.60
2023-03-26T18:03:50.697Z,66.89
2023-03-26T18:06:42.550Z,67.07
2023-03-26T18:09:12.256Z,67.42
2023-03-26T18:12:08.647Z,67.30
2023-03-26T18:14:43.986Z,67.82
2023-03-26T18:17:11.637Z,68.04
2023-03-26T18:19:52.674Z,68.18
2023-03-26T18:22:24.557Z,68.37
2023-03-26T18:26:14.417Z,68.43
2023-03-26T18:28:51.380Z,68.36
2023-03-26T18:31:25.073Z,68.53
2023-03-26T18:34:05.324Z,68.70
2023-03-26T18:36:33.308Z,68.95
2023-03-26T18:39:04.446Z,69.21
2023-03-26T18:41:41.987Z,69.28
2023-03-26T18:56:30.227Z,69.52
2023-03-26T18:59:06.762Z,69.57
2023-03-26T19:01:37.599Z,69.70
2023-03-26T19:04:08.824Z,69.85
2023-03-26T19:07:21.746Z,70.15
2023-03-26T19:10:38.659Z,70.72
2023-03-26T19:13:42.018Z,70.92
2023-03-26T19:16:26.670Z,70.89
2023-03-26T19:18:55.033Z,71.13
2023-03-26T19:21:23.529Z,71.28
2023-03-26T19:23:54.432Z,71.48
2023-03-26T19:26:22.773Z,71.60
2023-03-26T19:28:54.590Z,71.90
2023-03-26T19:31:35.680Z,71.98
2023-03-26T19:34:19.283Z,72.20
2023-03-26T19:36:56.401Z,72.36
2023-03-26T19:39:37.862Z,72.49
2023-03-26T19:42:11.606Z,72.75
2023-03-26T19:44:39.951Z,72.94
2023-03-26T19:47:52.236Z,73.17
2023-03-26T19:50:43.776Z,73.63
2023-03-26T19:53:16.784Z,73.70
2023-03-26T19:56:05.093Z,73.83
2023-03-26T19:58:35.667Z,73.78
2023-03-26T20:01:04.873Z,74.10
2023-03-26T20:03:47.262Z,74.52
2023-03-26T20:06:18.405Z,74.75
2023-03-26T20:08:52.107Z,75.11
2023-03-26T20:11:27.930Z,75.51
2023-03-26T20:16:57.235Z,75.99
2023-03-26T20:20:36.830Z,75.86
2023-03-26T20:24:17.882Z,76.14
2023-03-26T20:28:48.582Z,76.30
2023-03-26T20:31:49.481Z,76.41
2023-03-26T20:34:25.155Z,76.26
2023-03-26T20:37:01.391Z,76.34
2023-03-26T20:39:29.557Z,76.38
2023-03-26T20:41:57.923Z,76.30
2023-03-26T20:44:28.032Z,76.27
2023-03-26T20:46:58.905Z,76.18
2023-03-26T20:49:29.494Z,76.31
2023-03-26T20:51:59.838Z,76.30
2023-03-26T20:54:31.674Z,76.20
2023-03-26T20:58:34.588Z,76.17
2023-03-26T21:01:50.950Z,76.38
2023-03-26T21:04:20.398Z,76.41
2023-03-26T21:07:15.062Z,76.30
2023-03-26T21:09:56.257Z,76.49
2023-03-26T21:12:35.733Z,76.32
2023-03-26T21:15:23.132Z,76.28
2023-03-26T21:18:10.983Z,76.67
2023-03-26T21:22:36.024Z,77.30
2023-03-26T21:25:46.019Z,77.42
2023-03-26T21:28:35.829Z,77.67
2023-03-26T21:31:18.629Z,78.02
2023-03-26T21:33:49.578Z,78.28
2023-03-26T21:36:20.046Z,78.67
2023-03-26T21:38:55.697Z,78.69
2023-03-26T21:42:05.400Z,78.89
2023-03-26T21:45:19.050Z,78.80
2023-03-26T21:47:49.006Z,78.63
2023-03-26T21:50:21.777Z,78.59
2023-03-26T21:52:51.728Z,78.53
2023-03-26T21:55:22.738Z,78.51
2023-03-26T22:00:41.107Z,78.34
2023-03-26T22:03:18.220Z,78.32
2023-03-26T22:09:35.597Z,78.40
2023-03-26T22:12:05.473Z,78.44
2023-03-26T22:14:34.574Z,78.57
2023-03-26T22:17:03.400Z,78.81
2023-03-26T22:19:32.102Z,79.25
2023-03-26T22:22:00.711Z,79.51
2023-03-26T22:24:29.954Z,79.71
2023-03-26T22:26:57.950Z,79.95
2023-03-26T22:29:25.961Z,80.30
2023-03-26T22:31:53.913Z,80.71
2023-03-26T22:35:47.621Z,81.37
2023-03-26T22:39:27.507Z,81.83
2023-03-26T22:43:04.849Z,82.20
2023-03-26T22:46:44.200Z,82.66
2023-03-26T22:50:23.564Z,82.79
2023-03-26T22:52:51.683Z,82.89
2023-03-26T22:55:29.698Z,83.04
2023-03-26T22:57:58.177Z,83.25
2023-03-26T23:00:26.564Z,83.37
2023-03-26T23:05:30.079Z,83.52
2023-03-26T23:07:58.430Z,83.43
2023-03-26T23:10:26.442Z,83.38
2023-03-26T23:12:54.473Z,83.48
2023-03-26T23:15:25.932Z,83.49
2023-03-26T23:19:04.245Z,83.59
2023-03-26T23:22:50.751Z,83.62
2023-03-26T23:25:37.957Z,83.66
2023-03-26T23:29:20.445Z,83.51
2023-03-26T23:32:57.618Z,83.61
2023-03-26T23:35:25.898Z,83.55
2023-03-26T23:37:54.106Z,83.53
2023-03-26T23:40:22.130Z,83.65
2023-03-26T23:42:50.367Z,83.64
2023-03-26T23:45:18.338Z,83.73
2023-03-26T23:47:46.799Z,83.82
2023-03-26T23:50:16.556Z,83.87
2023-03-26T23:52:46.763Z,83.89
2023-03-26T23:55:14.641Z,83.92
2023-03-26T23:57:43.207Z,84.00
